createdAt,value
2024-02-04T00:01:00.157Z,47.28
2024-02-04T00:03:26.732Z,47.64
2024-02-04T00:05:53.124Z,47.65
2024-02-04T00:08:19.455Z,47.34
2024-02-04T00:10:45.819Z,47.88
2024-02-04T00:13:12.272Z,47.78
2024-02-04T00:15:38.646Z,47.92
2024-02-04T00:18:05.091Z,47.98
2024-02-04T00:20:31.593Z,48.13
2024-02-04T00:22:57.912Z,47.85
2024-02-04T00:25:24.309Z,47.84
2024-02-04T00:27:51.032Z,48.01
2024-02-04T00:30:17.378Z,48.40
2024-02-04T00:32:43.821Z,48.34
2024-02-04T00:35:10.212Z,48.70
2024-02-04T00:37:36.549Z,48.69
2024-02-04T00:40:02.994Z,48.75
2024-02-04T00:42:29.494Z,48.68
2024-02-04T00:44:56.029Z,49.14
2024-02-04T00:47:22.374Z,48.99
2024-02-04T00:49:48.774Z,48.52
2024-02-04T00:52:15.140Z,49.03
2024-02-04T00:54:41.491Z,49.10
2024-02-04T00:57:07.848Z,48.77
2024-02-04T00:59:34.186Z,49.03
2024-02-04T01:02:00.634Z,49.08
2024-02-04T01:04:27.258Z,49.27
2024-02-04T01:07:00.999Z,49.04
2024-02-04T01:09:28.583Z,48.95
2024-02-04T01:11:54.953Z,48.96
2024-02-04T01:14:21.278Z,48.83
2024-02-04T01:16:47.621Z,48.56
2024-02-04T01:19:14.090Z,48.65
2024-02-04T01:21:40.607Z,48.40
2024-02-04T01:24:06.962Z,48.60
2024-02-04T01:26:33.294Z,48.66
2024-02-04T01:28:59.622Z,48.61
2024-02-04T01:31:25.934Z,48.82
2024-02-04T01:33:52.656Z,48.48
2024-02-04T01:36:19.054Z,49.09
2024-02-04T01:38:45.377Z,49.14
2024-02-04T01:41:11.746Z,48.93
2024-02-04T01:43:38.108Z,48.87
2024-02-04T01:46:08.682Z,48.81
2024-02-04T01:48:35.738Z,48.95
2024-02-04T01:51:02.195Z,49.57
2024-02-04T01:53:28.579Z,49.31
2024-02-04T01:55:54.908Z,49.87
2024-02-04T01:58:21.265Z,50.17
2024-02-04T02:00:47.635Z,50.06
2024-02-04T02:03:14.098Z,50.05
2024-02-04T02:05:40.442Z,50.11
2024-02-04T02:08:06.775Z,50.35
2024-02-04T02:10:33.225Z,50.09
2024-02-04T02:12:59.684Z,50.09
2024-02-04T02:15:26.273Z,50.50
2024-02-04T02:17:52.731Z,50.65
2024-02-04T02:20:19.106Z,50.63
2024-02-04T02:22:45.450Z,50.75
2024-02-04T02:25:11.807Z,51.16
2024-02-04T02:27:38.166Z,51.22
2024-02-04T02:30:04.496Z,51.33
2024-02-04T02:32:31.104Z,51.66
2024-02-04T02:34:57.546Z,51.75
2024-02-04T02:37:23.918Z,51.46
2024-02-04T02:39:50.269Z,51.52
2024-02-04T02:42:16.585Z,51.39
2024-02-04T02:44:42.921Z,51.33
2024-02-04T02:47:09.301Z,51.16
2024-02-04T02:49:35.842Z,51.41
2024-02-04T02:52:02.282Z,51.38
2024-02-04T02:54:28.612Z,51.49
2024-02-04T02:56:54.954Z,51.37
2024-02-04T02:59:21.277Z,51.15
2024-02-04T03:01:47.674Z,51.35
2024-02-04T03:04:14.127Z,51.73
2024-02-04T03:06:40.590Z,51.49
2024-02-04T03:09:06.936Z,51.79
2024-02-04T03:11:33.292Z,51.68
2024-02-04T03:13:59.624Z,51.94
2024-02-04T03:16:25.961Z,52.13
2024-02-04T03:18:52.386Z,51.96
2024-02-04T03:21:18.756Z,52.06
2024-02-04T03:23:45.089Z,52.14
2024-02-04T03:26:11.433Z,51.93
2024-02-04T03:28:37.761Z,52.38
2024-02-04T03:31:04.416Z,52.00
2024-02-04T03:33:30.951Z,52.48
2024-02-04T03:35:57.356Z,52.43
2024-02-04T03:38:23.677Z,52.16
2024-02-04T03:40:50.124Z,52.45
2024-02-04T03:43:16.571Z,52.47
2024-02-04T03:45:42.960Z,52.52
2024-02-04T03:48:09.397Z,52.35
2024-02-04T03:50:35.789Z,52.42
2024-02-04T03:53:02.112Z,52.68
2024-02-04T03:55:28.468Z,52.95
2024-02-04T03:57:54.805Z,52.82
2024-02-04T04:00:21.141Z,52.80
2024-02-04T04:02:47.539Z,52.86
2024-02-04T04:05:14.271Z,53.28
2024-02-04T04:07:40.883Z,52.87
2024-02-04T04:10:07.294Z,52.75
2024-02-04T04:12:33.645Z,53.10
2024-02-04T04:14:59.982Z,53.21
2024-02-04T04:17:26.299Z,53.38
2024-02-04T04:19:52.741Z,53.35
2024-02-04T04:22:19.136Z,53.15
2024-02-04T04:24:45.626Z,53.37
2024-02-04T04:27:11.977Z,53.30
2024-02-04T04:29:38.304Z,53.05
2024-02-04T04:32:04.626Z,52.88
2024-02-04T04:34:30.959Z,53.09
2024-02-04T04:36:57.441Z,52.94
2024-02-04T04:39:23.814Z,53.17
2024-02-04T04:41:50.152Z,52.92
2024-02-04T04:44:16.495Z,53.13
2024-02-04T04:46:42.824Z,52.90
2024-02-04T04:49:09.274Z,52.98
2024-02-04T04:51:35.657Z,53.37
2024-02-04T04:54:02.030Z,53.29
2024-02-04T04:56:28.380Z,52.97
2024-02-04T04:58:54.720Z,53.27
2024-02-04T05:01:21.247Z,53.16
2024-02-04T05:03:47.681Z,53.05
2024-02-04T05:06:14.019Z,53.25
2024-02-04T05:08:40.342Z,53.39
2024-02-04T05:11:06.669Z,53.31
2024-02-04T05:13:32.995Z,53.12
2024-02-04T05:15:59.327Z,53.02
2024-02-04T05:18:25.871Z,52.84
2024-02-04T05:20:52.257Z,53.17
2024-02-04T05:23:18.628Z,53.53
2024-02-04T05:25:44.962Z,53.33
2024-02-04T05:28:11.390Z,53.48
2024-02-04T05:30:37.800Z,53.75
2024-02-04T05:33:04.198Z,53.43
2024-02-04T05:35:30.528Z,53.09
2024-02-04T05:37:56.859Z,53.09
2024-02-04T05:40:23.184Z,53.09
2024-02-04T05:42:49.849Z,52.70
2024-02-04T05:45:16.221Z,53.13
2024-02-04T05:47:42.782Z,53.34
2024-02-04T05:50:09.329Z,53.09
2024-02-04T05:52:35.716Z,53.15
2024-02-04T05:55:04.920Z,52.99
2024-02-04T05:57:31.931Z,53.60
2024-02-04T05:59:58.263Z,53.64
2024-02-04T06:02:24.757Z,53.84
2024-02-04T06:04:51.264Z,53.95
2024-02-04T06:07:17.836Z,54.08
2024-02-04T06:09:44.270Z,53.77
2024-02-04T06:12:10.613Z,53.91
2024-02-04T06:14:36.948Z,53.86
2024-02-04T06:17:03.281Z,54.19
2024-02-04T06:19:29.725Z,53.73
2024-02-04T06:21:56.109Z,54.08
2024-02-04T06:24:22.465Z,54.29
2024-02-04T06:26:48.776Z,54.63
2024-02-04T06:29:15.112Z,54.52
2024-02-04T06:31:41.433Z,54.59
2024-02-04T06:34:07.895Z,54.90
2024-02-04T06:36:34.501Z,54.92
2024-02-04T06:39:00.886Z,55.00
2024-02-04T06:41:27.205Z,57.26
2024-02-04T06:43:53.535Z,58.82
2024-02-04T06:46:19.900Z,58.34
2024-02-04T06:48:46.426Z,58.26
2024-02-04T06:51:12.842Z,57.48
2024-02-04T06:53:39.203Z,57.58
2024-02-04T06:56:05.527Z,57.62
2024-02-04T06:58:31.857Z,57.26
2024-02-04T07:00:58.624Z,57.72
2024-02-04T07:03:25.076Z,57.37
2024-02-04T07:05:51.481Z,57.48
2024-02-04T07:08:17.820Z,57.23
2024-02-04T07:10:44.259Z,56.88
2024-02-04T07:13:10.751Z,56.50
2024-02-04T07:15:37.134Z,56.94
2024-02-04T07:18:03.532Z,57.16
2024-02-04T07:20:29.906Z,57.52
2024-02-04T07:22:56.288Z,57.38
2024-02-04T07:25:22.825Z,57.07
2024-02-04T07:27:49.214Z,57.60
2024-02-04T07:30:15.564Z,57.79
2024-02-04T07:32:42.070Z,58.13
2024-02-04T07:35:08.497Z,58.10
2024-02-04T07:37:34.881Z,58.04
2024-02-04T07:40:01.313Z,57.65
2024-02-04T07:42:28.055Z,57.99
2024-02-04T07:44:54.394Z,57.72
2024-02-04T07:47:20.753Z,57.09
2024-02-04T07:49:47.305Z,56.40
2024-02-04T07:52:13.743Z,56.09
2024-02-04T07:54:40.155Z,56.05
2024-02-04T07:57:06.533Z,56.65
2024-02-04T07:59:32.862Z,57.17
2024-02-04T08:01:59.245Z,57.01
2024-02-04T08:04:25.611Z,57.15
2024-02-04T08:06:52.189Z,56.77
2024-02-04T08:09:18.579Z,57.01
2024-02-04T08:11:44.923Z,56.63
2024-02-04T08:14:11.256Z,56.57
2024-02-04T08:16:37.586Z,56.19
2024-02-04T08:19:04.095Z,56.39
2024-02-04T08:21:30.467Z,55.89
2024-02-04T08:23:56.801Z,55.81
2024-02-04T08:26:23.137Z,55.69
2024-02-04T08:28:49.463Z,55.24
2024-02-04T08:31:15.882Z,55.86
2024-02-04T08:33:42.369Z,55.37
2024-02-04T08:36:08.732Z,55.26
2024-02-04T08:38:35.062Z,55.30
2024-02-04T08:41:01.413Z,54.55
2024-02-04T08:43:27.827Z,54.92
2024-02-04T08:45:54.204Z,55.36
2024-02-04T08:48:20.608Z,55.02
2024-02-04T08:50:46.950Z,55.28
2024-02-04T08:53:13.280Z,55.79
2024-02-04T08:55:39.603Z,55.49
2024-02-04T08:58:05.950Z,55.55
2024-02-04T09:00:32.365Z,55.10
2024-02-04T09:02:58.709Z,55.29
2024-02-04T09:05:25.045Z,55.83
2024-02-04T09:07:51.454Z,55.80
2024-02-04T09:10:17.949Z,55.64
2024-02-04T09:12:44.507Z,54.68
2024-02-04T09:15:10.954Z,54.72
2024-02-04T09:17:37.497Z,55.25
2024-02-04T09:20:04.337Z,54.92
2024-02-04T09:22:30.944Z,55.04
2024-02-04T09:24:57.514Z,53.94
2024-02-04T09:27:23.986Z,52.95
2024-02-04T09:29:50.413Z,52.76
2024-02-04T09:32:19.286Z,51.81
2024-02-04T09:34:46.169Z,51.61
2024-02-04T09:37:13.095Z,50.92
2024-02-04T09:39:39.632Z,50.57
2024-02-04T09:42:06.082Z,50.14
2024-02-04T09:44:32.431Z,49.17
2024-02-04T09:46:58.792Z,50.02
2024-02-04T09:49:25.293Z,50.43
2024-02-04T09:51:51.908Z,50.37
2024-02-04T09:54:18.486Z,50.23
2024-02-04T09:56:44.856Z,50.26
2024-02-04T09:59:11.220Z,51.09
2024-02-04T10:01:37.690Z,51.17
2024-02-04T10:04:04.517Z,51.56
2024-02-04T10:06:32.257Z,51.72
2024-02-04T10:08:58.930Z,52.09
2024-02-04T10:11:25.409Z,51.81
2024-02-04T10:13:51.750Z,51.14
2024-02-04T10:16:18.094Z,51.46
2024-02-04T10:18:44.621Z,49.90
2024-02-04T10:21:11.031Z,49.66
2024-02-04T10:23:37.359Z,50.07
2024-02-04T10:26:06.462Z,48.74
2024-02-04T10:28:34.168Z,47.26
2024-02-04T10:31:00.525Z,46.63
2024-02-04T10:33:27.092Z,45.76
2024-02-04T10:35:53.646Z,45.07
2024-02-04T10:38:20.023Z,43.57
2024-02-04T10:40:46.391Z,42.93
2024-02-04T10:43:12.726Z,43.23
2024-02-04T10:45:39.093Z,42.25
2024-02-04T10:48:05.530Z,41.20
2024-02-04T10:50:31.883Z,41.70
2024-02-04T10:52:58.197Z,40.64
2024-02-04T10:55:24.603Z,39.64
2024-02-04T10:57:50.958Z,39.38
2024-02-04T11:00:17.289Z,38.06
2024-02-04T11:02:43.623Z,36.31
2024-02-04T11:05:10.093Z,36.14
2024-02-04T11:07:36.492Z,36.67
2024-02-04T11:10:02.980Z,34.94
2024-02-04T11:12:29.403Z,34.77
2024-02-04T11:14:55.735Z,34.76
2024-02-04T11:17:22.106Z,34.85
2024-02-04T11:19:48.552Z,35.06
2024-02-04T11:22:15.024Z,36.07
2024-02-04T11:24:41.423Z,35.21
2024-02-04T11:27:07.776Z,35.02
2024-02-04T11:29:34.188Z,33.93
2024-02-04T11:32:00.695Z,35.20
2024-02-04T11:34:27.460Z,35.01
2024-02-04T11:36:53.960Z,34.93
2024-02-04T11:39:20.391Z,34.53
2024-02-04T11:41:46.792Z,33.86
2024-02-04T11:44:13.124Z,32.47
2024-02-04T11:46:39.548Z,33.41
2024-02-04T11:49:06.144Z,32.41
2024-02-04T11:51:32.731Z,31.64
2024-02-04T11:53:59.324Z,32.58
2024-02-04T11:56:25.863Z,32.24
2024-02-04T11:58:52.236Z,30.88
2024-02-04T12:01:18.606Z,31.04
2024-02-04T12:03:44.977Z,30.10
2024-02-04T12:06:11.465Z,30.39
2024-02-04T12:08:37.804Z,29.44
2024-02-04T12:11:04.126Z,29.04
2024-02-04T12:13:30.484Z,29.24
2024-02-04T12:15:56.856Z,28.11
2024-02-04T12:18:23.376Z,27.80
2024-02-04T12:20:49.912Z,28.75
2024-02-04T12:23:16.269Z,28.42
2024-02-04T12:25:44.792Z,28.69
2024-02-04T12:28:11.515Z,28.76
2024-02-04T12:30:37.985Z,28.08
2024-02-04T12:33:04.393Z,28.62
2024-02-04T12:35:30.758Z,28.84
2024-02-04T12:37:57.084Z,28.89
2024-02-04T12:40:23.397Z,28.17
2024-02-04T12:42:49.760Z,28.91
2024-02-04T12:45:16.209Z,28.29
2024-02-04T12:47:42.660Z,27.79
2024-02-04T12:50:09.024Z,27.20
2024-02-04T12:52:35.386Z,27.81
2024-02-04T12:55:01.774Z,27.25
2024-02-04T12:57:28.157Z,26.94
2024-02-04T12:59:54.502Z,27.48
2024-02-04T13:02:20.822Z,26.84
2024-02-04T13:04:47.383Z,28.01
2024-02-04T13:07:13.850Z,28.09
2024-02-04T13:09:40.383Z,28.91
2024-02-04T13:12:06.896Z,28.78
2024-02-04T13:14:33.210Z,28.49
2024-02-04T13:16:59.648Z,28.38
2024-02-04T13:19:26.099Z,29.58
2024-02-04T13:21:52.548Z,29.98
2024-02-04T13:24:18.904Z,29.96
2024-02-04T13:26:45.229Z,29.28
2024-02-04T13:29:11.559Z,30.17
2024-02-04T13:31:37.953Z,29.13
2024-02-04T13:34:04.420Z,28.17
2024-02-04T13:36:30.812Z,28.42
2024-02-04T13:38:57.174Z,28.88
2024-02-04T13:41:23.517Z,28.56
2024-02-04T13:43:49.827Z,28.31
2024-02-04T13:46:16.205Z,28.74
2024-02-04T13:48:42.643Z,29.66
2024-02-04T13:51:09.014Z,30.92
2024-02-04T13:53:35.353Z,29.93
2024-02-04T13:56:01.821Z,30.35
2024-02-04T13:58:28.407Z,30.80
2024-02-04T14:00:54.837Z,30.96
2024-02-04T14:03:21.218Z,30.33
2024-02-04T14:05:47.575Z,31.02
2024-02-04T14:08:13.920Z,31.27
2024-02-04T14:10:40.266Z,31.26
2024-02-04T14:13:09.733Z,31.68
2024-02-04T14:15:37.489Z,31.04
2024-02-04T14:18:03.900Z,30.28
2024-02-04T14:20:30.293Z,30.39
2024-02-04T14:22:56.709Z,30.23
2024-02-04T14:25:23.081Z,31.10
2024-02-04T14:27:49.492Z,30.89
2024-02-04T14:30:15.858Z,30.44
2024-02-04T14:32:42.220Z,30.65
2024-02-04T14:35:08.663Z,29.41
2024-02-04T14:37:35.037Z,29.61
2024-02-04T14:40:01.418Z,29.75
2024-02-04T14:42:27.765Z,28.36
2024-02-04T14:44:54.081Z,28.72
2024-02-04T14:47:20.509Z,28.06
2024-02-04T14:49:46.918Z,29.17
2024-02-04T14:52:13.317Z,28.51
2024-02-04T14:54:39.805Z,29.62
2024-02-04T14:57:06.162Z,29.01
2024-02-04T14:59:32.597Z,29.21
2024-02-04T15:01:59.017Z,28.95
2024-02-04T15:04:25.445Z,29.08
2024-02-04T15:06:52.005Z,30.31
2024-02-04T15:09:18.406Z,31.23
2024-02-04T15:11:44.738Z,31.14
2024-02-04T15:14:11.074Z,29.95
2024-02-04T15:16:37.455Z,30.61
2024-02-04T15:19:03.875Z,31.52
2024-02-04T15:21:30.325Z,31.08
2024-02-04T15:23:56.694Z,31.80
2024-02-04T15:26:23.026Z,32.47
2024-02-04T15:28:49.536Z,32.54
2024-02-04T15:31:17.019Z,32.86
2024-02-04T15:33:43.409Z,32.90
2024-02-04T15:36:09.833Z,32.95
2024-02-04T15:38:36.353Z,32.62
2024-02-04T15:41:02.930Z,33.36
2024-02-04T15:43:29.489Z,33.09
2024-02-04T15:45:56.056Z,33.91
2024-02-04T15:48:22.695Z,33.16
2024-02-04T15:50:49.175Z,33.37
2024-02-04T15:53:15.660Z,33.05
2024-02-04T15:55:42.026Z,33.19
2024-02-04T15:58:08.469Z,33.55
2024-02-04T16:00:34.898Z,33.72
2024-02-04T16:03:01.320Z,34.43
2024-02-04T16:05:27.750Z,34.18
2024-02-04T16:07:54.170Z,34.59
2024-02-04T16:10:20.734Z,34.52
2024-02-04T16:12:47.231Z,34.46
2024-02-04T16:15:13.633Z,34.96
2024-02-04T16:17:40.115Z,34.39
2024-02-04T16:20:06.801Z,34.58
2024-02-04T16:22:33.516Z,34.69
2024-02-04T16:25:00.330Z,34.82
2024-02-04T16:27:26.876Z,34.92
2024-02-04T16:29:53.277Z,35.18
2024-02-04T16:32:19.735Z,34.92
2024-02-04T16:34:46.235Z,35.42
2024-02-04T16:37:12.887Z,35.64
2024-02-04T16:39:39.390Z,35.82
2024-02-04T16:42:05.832Z,35.93
2024-02-04T16:44:32.276Z,36.38
2024-02-04T16:46:58.794Z,37.19
2024-02-04T16:51:52.117Z,37.10
2024-02-04T16:54:18.570Z,37.69
2024-02-04T16:56:45.052Z,38.01
2024-02-04T16:59:11.505Z,38.50
2024-02-04T17:01:38.024Z,38.67
2024-02-04T17:04:04.564Z,38.98
2024-02-04T17:06:31.019Z,38.86
2024-02-04T17:08:57.411Z,38.45
2024-02-04T17:11:23.735Z,38.21
2024-02-04T17:13:50.049Z,38.51
2024-02-04T17:16:16.508Z,38.10
2024-02-04T17:18:42.947Z,38.94
2024-02-04T17:21:09.367Z,39.11
2024-02-04T17:23:35.687Z,39.01
2024-02-04T17:26:02.088Z,39.36
2024-02-04T17:28:28.607Z,39.49
2024-02-04T17:30:54.963Z,39.05
2024-02-04T17:33:21.409Z,39.91
2024-02-04T17:35:47.876Z,40.00
2024-02-04T17:38:14.331Z,40.39
2024-02-04T17:40:40.643Z,40.51
2024-02-04T17:43:07.037Z,40.69
2024-02-04T17:45:33.421Z,40.71
2024-02-04T17:47:59.773Z,41.43
2024-02-04T17:50:28.085Z,41.32
2024-02-04T17:52:54.647Z,41.76
2024-02-04T17:55:20.977Z,42.14
2024-02-04T17:57:47.415Z,42.20
2024-02-04T18:00:13.776Z,42.10
2024-02-04T18:02:46.641Z,42.34
2024-02-04T18:05:15.009Z,41.83
2024-02-04T18:07:41.749Z,41.96
2024-02-04T18:10:08.196Z,42.05
2024-02-04T18:12:34.555Z,42.00
2024-02-04T18:15:00.903Z,41.95
2024-02-04T18:17:28.800Z,42.14
2024-02-04T18:19:56.816Z,42.11
2024-02-04T18:22:23.220Z,41.80
2024-02-04T18:24:49.632Z,41.85
2024-02-04T18:27:15.971Z,42.33
2024-02-04T18:29:42.282Z,43.02
2024-02-04T18:32:08.705Z,43.30
2024-02-04T18:34:35.236Z,43.38
2024-02-04T18:37:01.619Z,43.29
2024-02-04T18:39:27.949Z,43.59
2024-02-04T18:41:54.277Z,43.80
2024-02-04T18:44:20.713Z,43.84
2024-02-04T18:46:47.056Z,43.74
2024-02-04T18:49:13.457Z,43.43
2024-02-04T18:51:39.882Z,43.10
2024-02-04T18:54:06.205Z,43.27
2024-02-04T18:56:32.645Z,43.26
2024-02-04T18:58:59.004Z,43.18
2024-02-04T19:01:25.495Z,43.69
2024-02-04T19:03:52.128Z,43.87
2024-02-04T19:06:18.637Z,43.70
2024-02-04T19:08:45.257Z,43.43
2024-02-04T19:11:11.631Z,43.85
2024-02-04T19:13:37.991Z,43.75
2024-02-04T19:16:04.413Z,43.82
2024-02-04T19:18:30.823Z,43.94
2024-02-04T19:20:57.158Z,43.82
2024-02-04T19:23:23.515Z,44.01
2024-02-04T19:25:49.852Z,44.01
2024-02-04T19:28:16.218Z,44.26
2024-02-04T19:30:42.631Z,44.34
2024-02-04T19:33:09.074Z,44.31
2024-02-04T19:35:35.483Z,44.26
2024-02-04T19:38:01.835Z,44.50
2024-02-04T19:40:28.152Z,44.37
2024-02-04T19:42:54.476Z,44.41
2024-02-04T19:45:20.833Z,44.53
2024-02-04T19:47:47.221Z,44.50
2024-02-04T19:50:13.750Z,44.60
2024-02-04T19:52:40.136Z,44.45
2024-02-04T19:55:06.502Z,44.96
2024-02-04T19:57:32.899Z,44.21
2024-02-04T19:59:59.282Z,44.58
2024-02-04T20:02:25.630Z,44.31
2024-02-04T20:04:52.042Z,44.68
2024-02-04T20:07:18.529Z,45.04
2024-02-04T20:09:44.950Z,45.12
2024-02-04T20:12:11.268Z,45.12
2024-02-04T20:14:37.855Z,45.29
2024-02-04T20:17:04.207Z,44.71
2024-02-04T20:19:30.671Z,44.51
2024-02-04T20:21:57.170Z,45.30
2024-02-04T20:24:23.542Z,45.67
2024-02-04T20:26:49.899Z,45.88
2024-02-04T20:29:16.233Z,46.16
2024-02-04T20:31:42.573Z,45.81
2024-02-04T20:34:09.146Z,45.83
2024-02-04T20:36:35.807Z,46.22
2024-02-04T20:39:02.155Z,46.17
2024-02-04T20:41:28.487Z,46.28
2024-02-04T20:43:54.957Z,46.37
2024-02-04T20:46:21.340Z,46.56
2024-02-04T20:48:47.679Z,46.77
2024-02-04T20:51:14.084Z,46.20
2024-02-04T20:53:40.484Z,46.47
2024-02-04T20:56:06.923Z,46.06
2024-02-04T20:58:33.243Z,46.31
2024-02-04T21:00:59.665Z,46.21
2024-02-04T21:03:26.053Z,46.61
2024-02-04T21:05:52.458Z,46.37
2024-02-04T21:08:18.831Z,46.05
2024-02-04T21:10:45.163Z,45.90
2024-02-04T21:13:11.553Z,45.85
2024-02-04T21:15:38.228Z,46.04
2024-02-04T21:18:04.924Z,46.00
2024-02-04T21:20:31.618Z,46.41
2024-02-04T21:22:57.965Z,46.75
2024-02-04T21:25:24.473Z,46.56
2024-02-04T21:27:50.959Z,46.04
2024-02-04T21:30:17.317Z,46.73
2024-02-04T21:32:43.697Z,46.31
2024-02-04T21:35:10.916Z,46.62
2024-02-04T21:37:37.711Z,47.09
2024-02-04T21:40:04.106Z,46.93
2024-02-04T21:42:30.504Z,47.03
2024-02-04T21:44:56.838Z,47.00
2024-02-04T21:47:23.175Z,47.12
2024-02-04T21:49:49.633Z,47.95
2024-02-04T21:52:16.160Z,48.38
2024-02-04T21:54:42.578Z,48.90
2024-02-04T21:57:08.989Z,49.12
2024-02-04T21:59:35.322Z,49.36
2024-02-04T22:02:01.823Z,49.79
2024-02-04T22:04:28.330Z,49.38
2024-02-04T22:06:54.977Z,49.13
2024-02-04T22:09:21.495Z,49.20
2024-02-04T22:11:47.834Z,49.28
2024-02-04T22:14:14.160Z,49.51
2024-02-04T22:16:40.519Z,49.56
2024-02-04T22:19:07.045Z,49.72
2024-02-04T22:21:33.500Z,49.99
2024-02-04T22:23:59.914Z,50.02
2024-02-04T22:26:26.248Z,49.67
2024-02-04T22:28:52.580Z,49.70
2024-02-04T22:31:19.124Z,49.74
2024-02-04T22:33:45.615Z,49.70
2024-02-04T22:36:12.025Z,49.63
2024-02-04T22:38:38.572Z,49.73
2024-02-04T22:41:04.902Z,49.38
2024-02-04T22:43:31.330Z,49.01
2024-02-04T22:45:57.720Z,49.31
2024-02-04T22:48:24.098Z,49.22
2024-02-04T22:50:50.443Z,49.35
2024-02-04T22:53:16.870Z,49.25
2024-02-04T22:55:43.193Z,49.10
2024-02-04T22:58:09.593Z,49.11
2024-02-04T23:00:36.118Z,49.42
2024-02-04T23:03:02.493Z,48.88
2024-02-04T23:05:28.849Z,48.90
2024-02-04T23:07:57.291Z,48.91
2024-02-04T23:10:25.434Z,48.42
2024-02-04T23:12:51.795Z,48.85
2024-02-04T23:15:18.276Z,48.60
2024-02-04T23:17:44.653Z,48.90
2024-02-04T23:20:11.303Z,48.37
2024-02-04T23:22:37.882Z,48.30
2024-02-04T23:25:04.228Z,48.59
2024-02-04T23:27:30.577Z,48.17
2024-02-04T23:29:57.046Z,48.17
2024-02-04T23:32:23.360Z,48.06
2024-02-04T23:34:49.796Z,47.83
2024-02-04T23:37:16.559Z,47.75
2024-02-04T23:39:42.953Z,48.16
2024-02-04T23:42:09.297Z,48.18
2024-02-04T23:44:35.788Z,47.95
2024-02-04T23:47:02.125Z,47.82
2024-02-04T23:49:28.595Z,48.21
2024-02-04T23:51:55.089Z,48.13
2024-02-04T23:54:21.433Z,48.04
2024-02-04T23:56:47.759Z,48.16
2024-02-04T23:59:14.102Z,47.99
